チューク諸島 の空港の天気 - METARとTAF

チューク国際空港 ( PTKK / TKK ) - ミクロネシア連邦 チューク諸島
飛行場実況気象(Metar)
観測時間12/01 02:53 +10 (11/30 16:53 UTC)
風向・風速不定 2m/s
視程10km以上
天気現象
少しの雲 雲底高度 370m
全天の8割程度の雲 雲底高度 8530m
気温26.7℃
湿度91%
気圧1005.5hPa
METARPTKK 301653Z VRB04KT 15SM FEW012 BKN280 27/25 A2969 RMK SLP055 T02670251
過去の天気等 Google飛行場航空写真 Wunderground天気予報

過去48時間のMETAR

飛行場予報(TAF)
発表時間: 12/01 03:37 +10 (11/30 17:37 UTC)
予報対象時間: 1日4時 +10 ~ 2日4時 +10
風向・風速北東 4m/s
視程10km以上
天気現象周辺でしゅう雨
少しの雲 雲底高度 460m
全天の8割程度の雲 雲底高度 8530m
PTKK 301737Z 3018/0118 05007KT P6SM VCSH FEW015 BKN280